Time;durP1;ratioP1;P1;durP2;ratioP2;P2;SDS_P1;SDS_P2;PMS_P1;PMS_P2;Temp;Humidity;BMP_temperature;BMP_pressure;BME280_temperature;BME280_humidity;BME280_pressure;Samples;Min_cycle;Max_cycle;Signal;HPM_P1;HPM_P2
2024/01/26 00:26:47;;;;;;;22.60;20.90;;;;;;;-141.02;100.00;81523.75;5089125;28;20263;-78
2024/01/26 01:09:38;;;;;;;21.03;19.43;;;;;;;-141.02;100.00;80778.25;5115762;28;20330;-78
2024/01/26 01:12:06;;;;;;;21.20;19.60;;;;;;;-141.02;100.00;80529.75;5116139;28;20224;-79
2024/01/26 01:14:36;;;;;;;22.23;20.63;;;;;;;-141.02;100.00;80529.75;5115851;28;20247;-78
2024/01/26 01:17:04;;;;;;;22.33;20.67;;;;;;;-141.02;100.00;80281.31;5115464;28;20193;-79
2024/01/26 01:19:31;;;;;;;25.07;22.97;;;;;;;-141.02;100.00;80281.31;5115763;28;20281;-78
2024/01/26 01:42:30;;;;;;;30.60;28.50;;;;;;;-141.02;100.00;79784.44;5096282;28;20219;-79
2024/01/26 01:44:57;;;;;;;23.50;21.80;;;;;;;-141.02;100.00;79536.03;5115162;28;20311;-78
2024/01/26 03:42:19;;;;;;;18.47;17.17;;;;;;;-141.02;100.00;80032.88;5112916;28;20195;-72
2024/01/26 03:44:46;;;;;;;20.00;18.60;;;;;;;-141.02;100.00;80032.88;5112529;28;20320;-72
2024/01/26 03:47:13;;;;;;;21.47;20.00;;;;;;;-141.02;100.00;80281.31;5112635;28;20758;-72
2024/01/26 03:49:44;;;;;;;19.70;18.30;;;;;;;-141.02;100.00;80529.75;5112948;28;20219;-71
2024/01/26 03:52:10;;;;;;;23.53;21.90;;;;;;;-141.02;100.00;80529.75;5112620;28;20225;-71
2024/01/26 03:54:37;;;;;;;21.83;20.33;;;;;;;-141.02;100.00;80529.75;5112527;28;20284;-72
2024/01/26 03:57:06;;;;;;;22.50;21.00;;;;;;;-141.02;100.00;80281.31;5112820;28;20231;-72
2024/01/26 03:59:34;;;;;;;22.40;20.90;;;;;;;-141.02;100.00;80032.88;5112477;28;20197;-72
2024/01/26 04:02:01;;;;;;;21.53;20.13;;;;;;;-141.02;100.00;80032.88;5112473;28;20190;-70
2024/01/26 04:04:28;;;;;;;18.80;17.50;;;;;;;-141.02;100.00;79784.44;5112359;28;20263;-73
2024/01/26 04:06:55;;;;;;;21.73;20.23;;;;;;;-141.02;100.00;80032.88;5112425;28;20653;-71
2024/01/26 04:30:11;;;;;;;22.53;20.93;;;;;;;-141.02;100.00;80529.75;5116928;28;20176;-71
2024/01/26 04:32:38;;;;;;;20.43;18.93;;;;;;;-141.02;100.00;80281.31;5116702;28;20270;-70
2024/01/26 04:35:06;;;;;;;21.53;19.93;;;;;;;-141.02;100.00;80281.31;5116578;28;20276;-71
2024/01/26 04:37:39;;;;;;;22.10;20.50;;;;;;;-141.02;100.00;80281.31;5116605;28;20301;-70
2024/01/26 04:40:07;;;;;;;25.33;23.53;;;;;;;-141.02;100.00;80529.75;5116449;28;20196;-71
2024/01/26 04:42:34;;;;;;;24.43;22.63;;;;;;;-141.02;100.00;80281.31;5115461;28;20189;-71
2024/01/26 04:45:01;;;;;;;20.50;18.80;;;;;;;-141.02;100.00;80032.88;5116127;28;20627;-72
2024/01/26 04:50:51;;;;;;;26.30;24.40;;;;;;;-141.02;100.00;80032.88;5116177;28;20215;-71
2024/01/26 04:53:18;;;;;;;24.87;23.07;;;;;;;-141.02;100.00;80032.88;5116263;28;20199;-71
2024/01/26 04:55:45;;;;;;;25.03;23.23;;;;;;;-141.02;100.00;80032.88;5115953;28;20296;-71
2024/01/26 04:58:12;;;;;;;23.13;21.23;;;;;;;-141.02;100.00;80032.88;5115874;28;20189;-70
2024/01/26 05:00:39;;;;;;;23.00;21.13;;;;;;;-141.02;100.00;80032.88;5115757;28;20627;-70
2024/01/26 05:03:12;;;;;;;24.37;22.47;;;;;;;-141.02;100.00;79784.44;5116051;28;20193;-70
2024/01/26 05:05:41;;;;;;;26.07;24.07;;;;;;;-141.02;100.00;79784.44;5115584;28;20228;-71
2024/01/26 05:11:33;;;;;;;25.13;23.13;;;;;;;-141.02;100.00;79536.03;5115732;28;20169;-72
2024/01/26 05:14:02;;;;;;;25.63;23.63;;;;;;;-141.02;100.00;79287.66;5115808;28;20226;-70
2024/01/26 05:16:29;;;;;;;23.50;21.60;;;;;;;-141.02;100.00;79536.03;5115461;28;20570;-71
2024/01/26 05:22:18;;;;;;;22.70;20.90;;;;;;;-141.02;100.00;79287.66;5115531;28;20257;-71
2024/01/26 05:24:46;;;;;;;22.40;20.60;;;;;;;-141.02;100.00;79039.28;5115244;28;20229;-71
2024/01/26 05:27:17;;;;;;;22.33;20.53;;;;;;;-141.02;100.00;79287.66;5115059;28;20212;-71
2024/01/26 05:29:47;;;;;;;21.50;19.70;;;;;;;-141.02;100.00;79039.28;5115596;28;20277;-71
2024/01/26 05:32:15;;;;;;;23.50;21.60;;;;;;;-141.02;100.00;79039.28;5115697;28;20254;-70
2024/01/26 05:34:48;;;;;;;23.63;21.77;;;;;;;-141.02;100.00;79039.28;5115500;28;20201;-70
2024/01/26 05:37:15;;;;;;;22.93;21.03;;;;;;;-141.02;100.00;79039.28;5115058;28;20236;-70
2024/01/26 05:39:42;;;;;;;22.30;20.43;;;;;;;-141.02;100.00;79039.28;5115349;28;20280;-70
2024/01/26 05:42:09;;;;;;;22.30;20.50;;;;;;;-141.02;100.00;78790.94;5114987;28;20203;-70
2024/01/26 05:44:37;;;;;;;22.23;20.50;;;;;;;-141.02;100.00;78790.94;5114718;28;20243;-71
2024/01/26 05:47:04;;;;;;;23.80;21.90;;;;;;;-141.02;100.00;78790.94;5114915;28;20232;-71
2024/01/26 05:49:33;;;;;;;24.23;22.33;;;;;;;-141.02;100.00;78542.63;5114946;28;20195;-70
2024/01/26 05:52:00;;;;;;;22.23;20.43;;;;;;;-141.02;100.00;78542.63;5115127;28;20193;-71
2024/01/26 05:54:27;;;;;;;26.30;24.30;;;;;;;-141.02;100.00;78542.63;5114702;28;20284;-70
2024/01/26 05:56:53;;;;;;;23.73;21.87;;;;;;;-141.02;100.00;78294.28;5114765;28;20650;-70
2024/01/26 05:59:20;;;;;;;24.57;22.67;;;;;;;-141.02;100.00;78294.28;5114682;28;20280;-70
2024/01/26 06:01:49;;;;;;;21.70;20.00;;;;;;;-141.02;100.00;78046.00;5114658;28;20338;-70
2024/01/26 06:04:16;;;;;;;21.60;19.90;;;;;;;-141.02;100.00;78542.63;5114798;28;20232;-70
2024/01/26 06:06:55;;;;;;;22.40;20.70;;;;;;;-141.02;100.00;78790.94;5114492;28;20203;-70
2024/01/26 06:09:22;;;;;;;23.47;21.67;;;;;;;-141.02;100.00;78790.94;5114774;28;20192;-70
2024/01/26 06:11:49;;;;;;;24.23;22.43;;;;;;;-141.02;100.00;78790.94;5114350;28;20280;-70
2024/01/26 06:14:16;;;;;;;21.63;19.83;;;;;;;-141.02;100.00;78790.94;5115126;28;20585;-70
2024/01/26 06:16:43;;;;;;;24.30;22.40;;;;;;;-141.02;100.00;79039.28;5114255;28;20732;-70
2024/01/26 06:19:30;;;;;;;23.93;22.03;;;;;;;-141.02;100.00;79039.28;5114573;28;20266;-70
2024/01/26 06:21:57;;;;;;;24.40;22.50;;;;;;;-141.02;100.00;79039.28;5114168;28;20733;-70
2024/01/26 06:24:24;;;;;;;20.73;19.03;;;;;;;-141.02;100.00;79287.66;5114420;28;20200;-70
2024/01/26 06:26:51;;;;;;;25.43;23.43;;;;;;;-141.02;100.00;79287.66;5114437;28;20276;-70
2024/01/26 06:29:18;;;;;;;24.83;22.83;;;;;;;-141.02;100.00;79536.03;5114451;28;20221;-71
2024/01/26 06:31:45;;;;;;;26.40;24.30;;;;;;;-141.02;100.00;79536.03;5114460;28;20197;-70
2024/01/26 06:34:37;;;;;;;22.20;20.30;;;;;;;-141.02;100.00;79784.44;5114325;28;20224;-71
2024/01/26 06:37:04;;;;;;;24.90;22.90;;;;;;;-141.02;100.00;80032.88;5114226;28;20207;-71
2024/01/26 06:39:33;;;;;;;23.37;21.47;;;;;;;-141.02;100.00;80032.88;5112843;28;20732;-70
2024/01/26 06:42:14;;;;;;;23.43;21.53;;;;;;;-141.02;100.00;80032.88;5114090;28;20215;-71
2024/01/26 06:44:41;;;;;;;22.30;20.40;;;;;;;-141.02;100.00;80032.88;5113640;28;20237;-71
2024/01/26 06:47:45;;;;;;;21.80;20.00;;;;;;;-141.02;100.00;80032.88;5113751;28;20200;-71
2024/01/26 06:50:14;;;;;;;23.93;21.93;;;;;;;-141.02;100.00;79784.44;5113977;28;20224;-72
2024/01/26 06:52:41;;;;;;;24.10;22.10;;;;;;;-141.02;99.23;79536.03;5114019;28;20229;-71
2024/01/26 06:55:26;;;;;;;25.00;23.00;;;;;;;-141.02;100.00;79784.44;5113593;28;20289;-71
2024/01/26 06:57:53;;;;;;;24.90;22.90;;;;;;;-141.02;99.65;79784.44;5113522;28;20197;-71
2024/01/26 07:00:21;;;;;;;27.47;25.37;;;;;;;-141.02;100.00;80032.88;5113469;28;20292;-72
2024/01/26 07:02:48;;;;;;;22.30;20.40;;;;;;;-141.02;100.00;80281.31;5113802;28;20287;-72
2024/01/26 07:05:16;;;;;;;26.60;24.50;;;;;;;-141.02;99.93;80032.88;5113647;28;20224;-73
2024/01/26 07:08:00;;;;;;;24.20;22.20;;;;;;;-141.02;98.55;80032.88;5113357;28;20193;-74
2024/01/26 07:10:28;;;;;;;26.03;23.93;;;;;;;-141.02;98.55;80032.88;5113189;28;20197;-74
2024/01/26 07:12:58;;;;;;;22.97;20.97;;;;;;;-141.02;98.30;80281.31;5113244;28;20228;-74
2024/01/26 07:15:25;;;;;;;25.90;23.77;;;;;;;-141.02;98.66;80529.75;5113154;28;20609;-75
2024/01/26 07:17:52;;;;;;;25.30;23.20;;;;;;;-141.02;97.13;80032.88;5114089;28;20259;-75
2024/01/26 07:20:21;;;;;;;27.83;25.53;;;;;;;-141.02;96.99;80281.31;5113181;28;20284;-76
2024/01/26 07:22:47;;;;;;;27.27;25.07;;;;;;;-141.02;97.14;80281.31;5112984;28;20739;-76
2024/01/26 07:25:18;;;;;;;23.60;21.50;;;;;;;-141.02;95.70;80032.88;5113314;28;20311;-79
2024/01/26 07:28:07;;;;;;;28.43;26.13;;;;;;;-141.02;96.29;80281.31;5112971;28;20693;-77
2024/01/26 07:30:34;;;;;;;26.57;24.37;;;;;;;-141.02;95.78;80281.31;5113306;28;20224;-78
2024/01/26 07:33:01;;;;;;;24.97;22.87;;;;;;;-141.02;96.72;80529.75;5113235;28;20582;-77
2024/01/26 07:35:29;;;;;;;23.80;21.70;;;;;;;-141.02;95.62;80529.75;5114894;28;20726;-77
2024/01/26 07:37:56;;;;;;;27.27;25.07;;;;;;;-141.02;95.45;80778.25;5116009;28;20204;-78
2024/01/26 07:40:23;;;;;;;25.00;22.90;;;;;;;-141.02;95.35;80778.25;5116415;28;20285;-78
2024/01/26 07:42:50;;;;;;;25.40;23.20;;;;;;;-141.02;95.13;80529.75;5117385;28;20239;-77
2024/01/26 07:45:17;;;;;;;24.57;22.37;;;;;;;-141.02;94.54;80529.75;5116887;28;20332;-78
2024/01/26 07:47:44;;;;;;;25.30;23.20;;;;;;;-141.02;94.14;80529.75;5117490;28;20232;-77
2024/01/26 07:50:11;;;;;;;25.80;23.60;;;;;;;-141.02;94.19;80529.75;5114822;28;20276;-78
2024/01/26 07:52:40;;;;;;;26.27;23.97;;;;;;;-141.02;94.17;80778.25;5113420;28;20192;-75
2024/01/26 07:55:22;;;;;;;23.00;20.90;;;;;;;-141.02;93.97;81772.31;5113556;28;20398;-76
2024/01/26 07:57:49;;;;;;;25.73;23.53;;;;;;;-141.02;92.97;81275.25;5114370;28;20197;-77
2024/01/26 08:00:17;;;;;;;27.07;24.77;;;;;;;-141.02;92.20;80778.25;5114516;28;20652;-77
2024/01/26 08:02:44;;;;;;;25.67;23.47;;;;;;;-141.02;92.19;80529.75;5115437;28;20193;-78
2024/01/26 08:05:11;;;;;;;25.40;23.20;;;;;;;-141.02;92.33;81523.75;5116131;28;20253;-77
2024/01/26 08:07:39;;;;;;;27.20;24.90;;;;;;;-141.02;89.53;81523.75;5117587;28;20221;-78
2024/01/26 08:10:09;;;;;;;26.90;24.60;;;;;;;-141.02;89.57;81026.72;5118604;28;20190;-77
2024/01/26 08:12:38;;;;;;;24.23;22.03;;;;;;;-141.02;90.09;81275.25;5116613;28;20220;-79
2024/01/26 08:15:06;;;;;;;25.57;23.27;;;;;;;-141.02;91.14;81523.75;5117559;28;20642;-79
2024/01/26 08:17:33;;;;;;;27.57;25.17;;;;;;;-141.02;90.13;81026.72;5116763;28;20583;-79
2024/01/26 08:20:03;;;;;;;27.70;25.30;;;;;;;-141.02;90.32;81523.75;5115885;28;20232;-78
2024/01/26 08:22:30;;;;;;;25.60;23.30;;;;;;;-141.02;92.06;81523.75;5114165;28;20197;-79
2024/01/26 08:25:00;;;;;;;26.00;23.70;;;;;;;-141.02;90.68;81772.31;5113092;28;20197;-79
2024/01/26 08:27:40;;;;;;;26.17;23.87;;;;;;;-141.02;90.22;81523.75;5112943;28;20197;-78
2024/01/26 08:30:09;;;;;;;27.10;24.70;;;;;;;-141.02;90.71;82020.88;5114200;28;20201;-78
2024/01/26 08:32:36;;;;;;;24.03;21.83;;;;;;;-141.02;92.21;82269.47;5115143;28;20196;-77
2024/01/26 08:35:09;;;;;;;25.37;23.00;;;;;;;-141.02;88.46;81523.75;5116087;28;20260;-77
2024/01/26 08:37:36;;;;;;;28.33;25.83;;;;;;;-141.02;88.82;81275.25;5115401;28;20189;-79
2024/01/26 08:40:06;;;;;;;29.07;26.57;;;;;;;-141.02;89.10;80778.25;5115682;28;20288;-77
2024/01/26 08:43:22;;;;;;;29.50;26.97;;;;;;;-141.02;90.09;80778.25;5111987;28;20189;-77
2024/01/26 08:45:49;;;;;;;35.07;32.23;;;;;;;-141.02;90.20;80778.25;5071494;28;20220;-75
2024/01/26 08:48:16;;;;;;;33.83;31.03;;;;;;;-141.02;90.32;80778.25;5071794;28;20230;-75
2024/01/26 08:50:43;;;;;;;31.63;29.03;;;;;;;-141.02;90.71;81275.25;5071864;28;20194;-75
2024/01/26 08:53:10;;;;;;;31.70;29.10;;;;;;;-141.02;89.35;81772.31;5071391;28;20286;-76
2024/01/26 08:56:12;;;;;;;35.67;32.77;;;;;;;-141.02;86.76;82518.06;5071716;28;20195;-76
2024/01/26 08:59:03;;;;;;;31.07;28.40;;;;;;;-141.02;86.86;82766.69;5072308;28;20189;-78
2024/01/26 09:01:30;;;;;;;29.37;26.80;;;;;;;-141.02;85.91;81026.72;5073977;28;20198;-79
2024/01/26 09:03:57;;;;;;;37.67;34.57;;;;;;;-141.02;86.92;80281.31;5079930;28;20195;-81
2024/01/26 09:06:24;;;;;;;37.03;34.10;;;;;;;-141.02;89.70;81523.75;5082714;28;20244;-80
2024/01/26 09:08:51;;;;;;;34.77;31.97;;;;;;;-141.02;86.79;82020.88;5083889;28;20201;-77
2024/01/26 09:11:19;;;;;;;38.77;35.67;;;;;;;-141.02;85.86;81772.31;5082908;28;20195;-77
2024/01/26 09:13:46;;;;;;;33.57;30.77;;;;;;;-141.02;87.54;82766.69;5084646;28;20191;-78
2024/01/26 09:16:13;;;;;;;40.43;37.33;;;;;;;-141.02;86.54;83015.31;5079277;28;20198;-78
2024/01/26 09:18:40;;;;;;;35.60;32.80;;;;;;;-141.02;84.20;81772.31;5077258;28;20238;-79
2024/01/26 09:21:10;;;;;;;34.80;32.10;;;;;;;-141.02;85.76;81523.75;5075850;28;20285;-79
2024/01/26 09:23:37;;;;;;;35.50;32.70;;;;;;;-141.02;85.70;82518.06;5075033;28;20205;-79
2024/01/26 09:26:04;;;;;;;27.87;25.40;;;;;;;-141.02;83.04;82766.69;5075135;28;20226;-79
2024/01/26 09:28:33;;;;;;;25.87;23.37;;;;;;;-141.02;82.11;82766.69;5075664;28;20194;-79
2024/01/26 09:31:00;;;;;;;25.43;22.83;;;;;;;-141.02;82.81;82766.69;5074670;28;20241;-77
2024/01/26 09:33:27;;;;;;;25.77;23.17;;;;;;;-141.02;82.86;82518.06;5074937;28;20643;-79
2024/01/26 09:35:54;;;;;;;31.20;28.30;;;;;;;-141.02;81.24;81523.75;5074837;28;20230;-79
2024/01/26 09:38:21;;;;;;;33.57;30.63;;;;;;;-141.02;80.94;81523.75;5074521;28;20237;-78
2024/01/26 09:40:48;;;;;;;26.40;23.90;;;;;;;-141.02;81.24;81523.75;5074411;28;20743;-77
2024/01/26 09:43:16;;;;;;;25.63;23.13;;;;;;;-141.02;80.84;82269.47;5075332;28;20194;-78
2024/01/26 09:45:44;;;;;;;28.43;25.77;;;;;;;-141.02;80.25;83263.97;5114959;28;20255;-77
2024/01/26 09:48:12;;;;;;;30.70;27.90;;;;;;;-141.02;80.36;81772.31;5114930;28;20193;-78
2024/01/26 09:50:39;;;;;;;27.03;24.53;;;;;;;-141.02;80.80;82518.06;5114915;28;20229;-78
2024/01/26 09:53:06;;;;;;;26.70;24.30;;;;;;;-141.02;79.03;83015.31;5115156;28;20225;-79
2024/01/26 09:55:34;;;;;;;31.70;28.90;;;;;;;-141.02;79.38;83761.31;5115056;28;20279;-78
2024/01/26 09:58:02;;;;;;;30.80;28.00;;;;;;;-141.02;79.14;81275.25;5114611;28;20228;-79
2024/01/26 10:00:30;;;;;;;27.37;24.87;;;;;;;-141.02;78.99;81275.25;5114561;28;20193;-79
2024/01/26 10:02:58;;;;;;;26.03;23.63;;;;;;;-141.02;78.13;80032.88;5115007;28;20318;-79
2024/01/26 10:05:25;;;;;;;25.80;23.50;;;;;;;-141.02;79.00;81275.25;5114866;28;20228;-79
2024/01/26 10:07:52;;;;;;;25.80;23.40;;;;;;;-141.02;76.05;81026.72;5114705;28;20240;-80
2024/01/26 10:10:19;;;;;;;25.80;23.40;;;;;;;-141.02;77.02;80529.75;5114576;28;20201;-80
2024/01/26 10:12:46;;;;;;;25.67;23.37;;;;;;;-141.02;76.41;80281.31;5114323;28;20189;-78
2024/01/26 10:15:13;;;;;;;25.73;23.43;;;;;;;-141.02;75.00;80778.25;5114404;28;20246;-79
2024/01/26 10:17:40;;;;;;;26.03;23.63;;;;;;;-141.02;75.44;81275.25;5114394;28;20208;-79
2024/01/26 10:20:14;;;;;;;26.10;23.80;;;;;;;-141.02;75.35;82020.88;5114619;28;20224;-80
2024/01/26 10:22:42;;;;;;;25.80;23.50;;;;;;;-141.02;73.12;81772.31;5114309;28;20655;-80
2024/01/26 10:25:10;;;;;;;26.10;23.70;;;;;;;-141.02;75.93;82020.88;5114420;28;20287;-79
2024/01/26 10:27:37;;;;;;;28.20;25.70;;;;;;;-141.02;73.60;82269.47;5114383;28;20789;-75
2024/01/26 10:30:05;;;;;;;25.70;23.40;;;;;;;-141.02;75.59;83015.31;5114448;28;20235;-78
2024/01/26 10:32:33;;;;;;;25.90;23.50;;;;;;;-141.02;73.60;82020.88;5114198;28;20201;-78
2024/01/26 10:35:02;;;;;;;26.40;24.00;;;;;;;-141.02;73.00;82766.69;5114337;28;20197;-80
2024/01/26 10:37:33;;;;;;;26.20;23.80;;;;;;;-141.02;72.73;81772.31;5114132;28;20201;-79
2024/01/26 10:40:01;;;;;;;26.50;24.10;;;;;;;-141.02;70.05;80529.75;5114074;28;20617;-79
2024/01/26 10:42:30;;;;;;;31.20;28.60;;;;;;;-141.02;70.13;82020.88;5114775;28;20201;-78
2024/01/26 10:45:00;;;;;;;29.90;27.23;;;;;;;-141.02;69.76;82269.47;5114249;28;20225;-78
2024/01/26 10:47:34;;;;;;;31.90;29.20;;;;;;;-141.02;69.66;82269.47;5114016;28;20228;-78
2024/01/26 10:50:05;;;;;;;25.17;22.83;;;;;;;-141.02;69.67;82269.47;5113654;28;20196;-77
2024/01/26 10:52:37;;;;;;;27.27;24.83;;;;;;;-141.02;69.10;83263.97;5114062;28;20310;-78
2024/01/26 10:55:06;;;;;;;32.30;29.60;;;;;;;-141.02;67.23;82020.88;5113648;28;20185;-78
2024/01/26 10:57:33;;;;;;;26.90;24.40;;;;;;;-141.02;68.54;81026.72;5113559;28;20355;-78
2024/01/26 11:00:01;;;;;;;30.20;27.60;;;;;;;-141.02;68.82;81026.72;5113540;28;20642;-77
2024/01/26 11:02:32;;;;;;;27.30;24.90;;;;;;;-141.02;68.25;80032.88;5113681;28;20276;-76
2024/01/26 11:04:59;;;;;;;33.20;30.40;;;;;;;-141.02;70.38;81523.75;5113382;28;20189;-76
2024/01/26 11:07:27;;;;;;;25.90;23.50;;;;;;;-141.02;69.64;81275.25;5113574;28;20232;-76
2024/01/26 11:10:00;;;;;;;32.30;29.60;;;;;;;-141.02;68.29;80778.25;5113491;28;20218;-77
2024/01/26 11:12:29;;;;;;;33.43;30.67;;;;;;;-141.02;69.37;83263.97;5113538;28;20185;-77
2024/01/26 11:15:09;;;;;;;32.27;29.47;;;;;;;-141.02;66.22;81523.75;5113149;28;20211;-74
2024/01/26 11:17:45;;;;;;;31.40;28.60;;;;;;;-141.02;68.45;80778.25;5113108;28;20575;-76
2024/01/26 11:20:14;;;;;;;26.90;24.30;;;;;;;-141.02;68.01;81523.75;5113012;28;20192;-76
2024/01/26 11:22:41;;;;;;;34.83;31.77;;;;;;;-141.02;67.82;80032.88;5112962;28;20193;-74
2024/01/26 11:25:20;;;;;;;33.00;30.10;;;;;;;-141.02;71.87;81523.75;5112667;28;20682;-75
2024/01/26 11:27:47;;;;;;;27.30;24.60;;;;;;;-141.02;69.24;82269.47;5112974;28;20223;-75
2024/01/26 11:30:44;;;;;;;30.20;27.40;;;;;;;-141.02;67.99;79536.03;5113000;28;20239;-75
2024/01/26 11:33:18;;;;;;;30.83;28.03;;;;;;;-141.02;69.87;80281.31;5112867;28;20197;-75
2024/01/26 11:35:46;;;;;;;32.77;29.87;;;;;;;-141.02;68.75;80281.31;5112896;28;20190;-76
2024/01/26 11:38:13;;;;;;;26.90;24.30;;;;;;;-141.02;69.49;81772.31;5113116;28;20619;-76
2024/01/26 11:40:42;;;;;;;27.83;25.23;;;;;;;-141.02;67.53;80778.25;5113045;28;20200;-75
2024/01/26 11:43:10;;;;;;;34.57;31.57;;;;;;;-141.02;67.66;80529.75;5112964;28;20272;-75
2024/01/26 11:45:42;;;;;;;30.47;27.67;;;;;;;-141.02;67.57;80032.88;5112836;28;20278;-75
2024/01/26 11:48:11;;;;;;;28.83;26.13;;;;;;;-141.02;69.09;80281.31;5112581;28;20228;-76
2024/01/26 11:50:40;;;;;;;28.07;25.37;;;;;;;-141.02;68.76;80778.25;5112737;28;20236;-75
2024/01/26 11:53:07;;;;;;;33.67;30.70;;;;;;;-141.02;68.14;81026.72;5112591;28;20197;-75
2024/01/26 11:55:34;;;;;;;31.03;28.23;;;;;;;-141.02;67.55;79039.28;5112866;28;20192;-75
2024/01/26 11:58:03;;;;;;;30.73;27.93;;;;;;;-141.02;68.64;78046.00;5112522;28;20246;-75
2024/01/26 12:00:30;;;;;;;28.60;25.90;;;;;;;-141.02;69.41;78046.00;5112433;28;20232;-75
2024/01/26 12:02:57;;;;;;;32.70;29.80;;;;;;;-141.02;69.14;78542.63;5112756;28;20189;-76
2024/01/26 12:05:26;;;;;;;33.90;31.00;;;;;;;-141.02;70.72;80032.88;5112371;28;20193;-74
2024/01/26 12:07:53;;;;;;;27.60;25.10;;;;;;;-141.02;68.42;80032.88;5112350;28;20601;-75
2024/01/26 12:10:20;;;;;;;28.10;25.50;;;;;;;-141.02;67.57;78294.28;5112352;28;20238;-75
2024/01/26 12:12:49;;;;;;;30.40;27.70;;;;;;;-141.02;67.30;77797.72;5112307;28;20279;-75
2024/01/26 12:15:18;;;;;;;29.40;26.80;;;;;;;-141.02;67.55;77301.22;5112757;28;20250;-75
2024/01/26 12:17:48;;;;;;;26.67;24.13;;;;;;;-141.02;68.17;78542.63;5112658;28;20251;-74
2024/01/26 12:20:15;;;;;;;27.10;24.50;;;;;;;-141.02;68.15;77549.47;5112350;28;20228;-75
2024/01/26 12:22:45;;;;;;;30.13;27.43;;;;;;;-141.02;67.25;77053.00;5112124;28;20284;-74
2024/01/26 12:25:14;;;;;;;30.10;27.33;;;;;;;-141.02;67.44;77797.72;5112574;28;20220;-74
2024/01/26 12:27:42;;;;;;;26.50;23.90;;;;;;;-141.02;67.59;77797.72;5112190;28;20316;-75
2024/01/26 12:30:12;;;;;;;52.07;41.43;;;;;;;-141.02;68.87;78294.28;5112202;28;20283;-74
2024/01/26 12:32:40;;;;;;;31.57;28.87;;;;;;;-141.02;67.38;76804.81;5112161;28;20197;-74
2024/01/26 12:35:09;;;;;;;30.90;28.30;;;;;;;-141.02;68.28;77301.22;5112185;28;20221;-74
2024/01/26 12:37:36;;;;;;;27.40;24.80;;;;;;;-141.02;68.04;77797.72;5114404;28;20598;-75
2024/01/26 12:40:03;;;;;;;27.77;25.17;;;;;;;-141.02;66.94;77053.00;5116887;28;20287;-74
2024/01/26 12:42:31;;;;;;;27.50;24.90;;;;;;;-141.02;67.24;78294.28;5116122;28;20193;-73
2024/01/26 12:44:59;;;;;;;30.97;28.27;;;;;;;-141.02;67.58;77549.47;5115780;28;20702;-75
2024/01/26 12:47:26;;;;;;;27.30;24.70;;;;;;;-141.02;67.35;78046.00;5116285;28;20285;-74
2024/01/26 12:49:55;;;;;;;27.37;24.77;;;;;;;-141.02;67.55;77301.22;5115972;28;20193;-74
2024/01/26 12:52:22;;;;;;;27.87;25.27;;;;;;;-141.02;67.75;76556.59;5116155;28;20193;-75
2024/01/26 12:54:54;;;;;;;31.63;28.83;;;;;;;-141.02;68.43;78294.28;5116176;28;20193;-75
2024/01/26 12:57:22;;;;;;;31.93;29.13;;;;;;;-141.02;67.63;79039.28;5115765;28;20539;-74
2024/01/26 12:59:49;;;;;;;27.67;25.07;;;;;;;-141.02;67.46;79536.03;5115675;28;20227;-75
2024/01/26 13:02:16;;;;;;;28.67;26.07;;;;;;;-141.02;66.34;78046.00;5115643;28;20649;-76
2024/01/26 13:04:57;;;;;;;34.40;31.50;;;;;;;-141.02;66.82;77549.47;5115952;28;20197;-75
2024/01/26 13:07:24;;;;;;;33.57;30.67;;;;;;;-141.02;66.90;78046.00;5115813;28;20224;-75
2024/01/26 13:09:51;;;;;;;27.00;24.50;;;;;;;-141.02;66.44;77301.22;5115948;28;20197;-76
2024/01/26 13:12:18;;;;;;;30.87;28.17;;;;;;;-141.02;68.49;78542.63;5115969;28;20641;-75
2024/01/26 13:14:46;;;;;;;34.50;31.50;;;;;;;-141.02;67.45;78542.63;5115573;28;20228;-76
2024/01/26 13:17:14;;;;;;;33.83;31.03;;;;;;;-141.02;67.14;77549.47;5115842;28;20201;-75
2024/01/26 13:19:41;;;;;;;26.80;24.40;;;;;;;-141.02;68.37;78542.63;5115408;28;20201;-76
2024/01/26 13:22:09;;;;;;;32.13;29.43;;;;;;;-141.02;66.82;78542.63;5115476;28;20246;-76
2024/01/26 13:24:36;;;;;;;30.50;27.80;;;;;;;-141.02;65.84;78046.00;5115674;28;20193;-75
2024/01/26 13:27:04;;;;;;;32.73;29.93;;;;;;;-141.02;67.43;78542.63;5115325;28;20756;-76
2024/01/26 13:29:31;;;;;;;27.17;24.67;;;;;;;-141.02;66.67;78046.00;5115319;28;20250;-76
2024/01/26 13:31:58;;;;;;;34.03;31.17;;;;;;;-141.02;66.88;78046.00;5115537;28;20195;-76
2024/01/26 13:34:24;;;;;;;31.17;28.47;;;;;;;-141.02;66.78;77053.00;5115204;28;20196;-75
2024/01/26 13:36:51;;;;;;;26.90;24.40;;;;;;;-141.02;67.83;78294.28;5115160;28;20660;-77
2024/01/26 13:39:20;;;;;;;25.93;23.53;;;;;;;-141.02;67.56;79039.28;5115155;28;20289;-76
2024/01/26 13:41:47;;;;;;;31.60;28.57;;;;;;;-141.02;65.70;77549.47;5115175;28;20678;-77
2024/01/26 13:44:23;;;;;;;30.17;27.57;;;;;;;-141.02;67.45;78046.00;5115074;28;20263;-76
2024/01/26 13:46:51;;;;;;;25.97;23.57;;;;;;;-141.02;66.55;78046.00;5114909;28;20200;-73
2024/01/26 13:49:18;;;;;;;25.40;23.10;;;;;;;-141.02;67.30;78046.00;5114629;28;20222;-76
2024/01/26 13:51:53;;;;;;;28.43;25.93;;;;;;;-141.02;67.02;77549.47;5115238;28;20189;-77
2024/01/26 13:54:22;;;;;;;28.03;25.53;;;;;;;-141.02;67.24;78294.28;5115188;28;20223;-76
2024/01/26 13:56:53;;;;;;;25.77;23.37;;;;;;;-141.02;66.74;77797.72;5115081;28;20272;-78
2024/01/26 13:59:20;;;;;;;25.17;22.77;;;;;;;-141.02;66.83;76804.81;5115097;28;20243;-77
2024/01/26 14:01:47;;;;;;;29.00;26.40;;;;;;;-141.02;67.77;77301.22;5114750;28;20284;-78
2024/01/26 14:04:15;;;;;;;29.00;26.40;;;;;;;-141.02;67.11;76556.59;5114629;28;20200;-77
2024/01/26 14:06:42;;;;;;;25.70;23.30;;;;;;;-141.02;67.18;76556.59;5114631;28;20714;-77
2024/01/26 14:09:09;;;;;;;25.37;22.97;;;;;;;-141.02;69.95;78046.00;5114919;28;20204;-77
2024/01/26 14:11:37;;;;;;;27.57;25.17;;;;;;;-141.02;67.81;76804.81;5114773;28;20242;-76
2024/01/26 14:14:06;;;;;;;30.27;27.77;;;;;;;-141.02;67.67;77301.22;5114431;28;20193;-77
2024/01/26 14:16:34;;;;;;;25.97;23.67;;;;;;;-141.02;66.62;76060.28;5114317;28;20244;-77
2024/01/26 14:19:00;;;;;;;26.20;23.80;;;;;;;-141.02;67.78;77053.00;5114776;28;20628;-77
2024/01/26 14:21:27;;;;;;;28.27;25.87;;;;;;;-141.02;66.29;77053.00;5114328;28;20197;-76
2024/01/26 14:23:54;;;;;;;28.90;26.50;;;;;;;-141.02;66.56;76804.81;5114285;28;20280;-77
2024/01/26 14:26:23;;;;;;;25.97;23.57;;;;;;;-141.02;66.61;76308.44;5114522;28;20197;-77
2024/01/26 14:28:51;;;;;;;26.17;23.77;;;;;;;-141.02;66.78;75564.03;5114124;28;20225;-77
2024/01/26 14:31:19;;;;;;;30.13;27.53;;;;;;;-141.02;67.94;76308.44;5114249;28;20284;-77
2024/01/26 14:33:46;;;;;;;30.50;27.90;;;;;;;-141.02;67.26;76060.28;5114078;28;20203;-77
2024/01/26 14:36:13;;;;;;;25.67;23.27;;;;;;;-141.02;67.45;76308.44;5114371;28;20301;-76
2024/01/26 14:38:40;;;;;;;25.77;23.37;;;;;;;-141.02;68.13;76060.28;5114350;28;20280;-77
2024/01/26 14:41:07;;;;;;;29.63;27.03;;;;;;;-141.02;68.81;75812.16;5114207;28;20658;-77
2024/01/26 14:43:34;;;;;;;29.40;26.80;;;;;;;-141.02;67.27;75812.16;5113943;28;20267;-77
2024/01/26 14:46:03;;;;;;;26.23;23.73;;;;;;;-141.02;67.54;75564.03;5114119;28;20284;-76
2024/01/26 14:48:29;;;;;;;30.43;27.77;;;;;;;-141.02;68.18;75812.16;5113989;28;20248;-78
2024/01/26 14:50:56;;;;;;;29.20;26.70;;;;;;;-141.02;68.61;75067.88;5114049;28;20292;-78
2024/01/26 14:53:24;;;;;;;25.83;23.53;;;;;;;-141.02;70.50;74819.81;5113980;28;20193;-77
2024/01/26 14:55:51;;;;;;;25.73;23.43;;;;;;;-141.02;70.44;73827.72;5113971;28;20189;-78
2024/01/26 14:58:18;;;;;;;32.20;29.70;;;;;;;-141.02;72.59;73827.72;5113507;28;20240;-77
2024/01/26 15:00:45;;;;;;;32.73;30.13;;;;;;;-141.02;73.86;73579.75;5112583;28;20284;-77